createdAt,value
2023-02-06T00:01:47.738Z,4.17
2023-02-06T00:04:14.370Z,4.13
2023-02-06T00:06:40.837Z,4.65
2023-02-06T00:09:07.900Z,4.63
2023-02-06T00:11:34.473Z,4.29
2023-02-06T00:14:00.911Z,4.16
2023-02-06T00:16:30.157Z,4.43
2023-02-06T00:18:58.009Z,4.11
2023-02-06T00:21:26.086Z,4.10
2023-02-06T00:23:54.630Z,4.10
2023-02-06T00:26:21.381Z,4.12
2023-02-06T00:28:48.345Z,4.17
2023-02-06T00:31:15.609Z,4.17
2023-02-06T00:33:43.199Z,4.33
2023-02-06T00:36:10.219Z,4.35
2023-02-06T00:38:37.688Z,4.34
2023-02-06T00:41:04.434Z,4.59
2023-02-06T00:43:30.984Z,4.31
2023-02-06T00:45:58.046Z,4.28
2023-02-06T00:48:25.579Z,4.31
2023-02-06T00:50:52.946Z,4.41
2023-02-06T00:53:19.678Z,4.45
2023-02-06T00:55:46.090Z,4.42
2023-02-06T00:58:12.522Z,4.42
2023-02-06T01:00:39.095Z,4.35
2023-02-06T01:03:05.501Z,4.35
2023-02-06T01:05:31.925Z,4.35
2023-02-06T01:07:58.369Z,4.38
2023-02-06T01:10:25.016Z,4.43
2023-02-06T01:12:51.491Z,4.41
2023-02-06T01:15:17.917Z,4.85
2023-02-06T01:17:44.390Z,4.93
2023-02-06T01:20:13.170Z,4.63
2023-02-06T01:22:40.005Z,4.54
2023-02-06T01:25:07.117Z,4.43
2023-02-06T01:27:36.780Z,4.46
2023-02-06T01:30:04.970Z,4.42
2023-02-06T01:32:31.531Z,4.43
2023-02-06T01:34:57.944Z,4.47
2023-02-06T01:37:24.371Z,4.52
2023-02-06T01:39:50.805Z,4.73
2023-02-06T01:42:17.366Z,4.68
2023-02-06T01:44:43.785Z,4.64
2023-02-06T01:47:10.975Z,4.72
2023-02-06T01:49:41.658Z,4.72
2023-02-06T01:52:15.934Z,4.68
2023-02-06T01:54:43.836Z,4.73
2023-02-06T01:57:11.288Z,4.74
2023-02-06T01:59:38.037Z,4.60
2023-02-06T02:02:04.647Z,5.05
2023-02-06T02:04:32.242Z,4.79
2023-02-06T02:07:20.443Z,4.53
2023-02-06T02:09:46.902Z,4.39
2023-02-06T02:12:14.087Z,4.28
2023-02-06T02:14:42.262Z,4.22
2023-02-06T02:17:19.518Z,4.18
2023-02-06T02:20:23.382Z,4.16
2023-02-06T02:23:01.444Z,4.21
2023-02-06T02:25:43.085Z,4.76
2023-02-06T02:28:24.037Z,4.87
2023-02-06T02:31:02.686Z,4.38
2023-02-06T02:33:42.326Z,4.35
2023-02-06T02:36:15.217Z,4.45
2023-02-06T02:39:10.411Z,4.49
2023-02-06T02:41:44.933Z,4.51
2023-02-06T02:44:16.859Z,4.54
2023-02-06T02:46:45.049Z,4.62
2023-02-06T02:49:17.546Z,4.65
2023-02-06T02:51:44.260Z,4.55
2023-02-06T02:54:10.808Z,4.62
2023-02-06T02:56:37.416Z,4.62
2023-02-06T02:59:08.580Z,4.56
2023-02-06T03:01:44.767Z,4.53
2023-02-06T03:04:16.676Z,4.50
2023-02-06T03:06:55.713Z,4.40
2023-02-06T03:09:46.001Z,4.41
2023-02-06T03:12:23.130Z,4.54
2023-02-06T03:15:12.921Z,4.60
2023-02-06T03:17:42.412Z,4.56
2023-02-06T03:20:09.749Z,4.53
2023-02-06T03:22:38.866Z,4.36
2023-02-06T03:25:10.908Z,4.16
2023-02-06T03:27:39.898Z,4.14
2023-02-06T03:30:08.753Z,4.10
2023-02-06T03:32:37.097Z,4.06
2023-02-06T03:35:22.681Z,3.91
2023-02-06T03:37:49.421Z,3.64
2023-02-06T03:40:16.702Z,3.47
2023-02-06T03:42:48.439Z,3.35
2023-02-06T03:45:19.926Z,3.25
2023-02-06T03:47:47.256Z,3.16
2023-02-06T03:50:14.197Z,3.06
2023-02-06T03:52:44.776Z,3.00
2023-02-06T03:55:14.402Z,2.98
2023-02-06T03:57:42.498Z,2.99
2023-02-06T04:00:09.615Z,3.14
2023-02-06T04:02:36.793Z,3.23
2023-02-06T04:05:03.303Z,3.35
2023-02-06T04:07:31.084Z,3.39
2023-02-06T04:09:57.707Z,3.37
2023-02-06T04:12:24.855Z,3.39
2023-02-06T04:14:51.749Z,3.35
2023-02-06T04:17:38.549Z,3.44
2023-02-06T04:20:06.176Z,3.44
2023-02-06T04:22:32.698Z,3.46
2023-02-06T04:24:59.147Z,3.59
2023-02-06T04:27:25.632Z,3.62
2023-02-06T04:29:52.057Z,3.66
2023-02-06T04:32:18.462Z,3.75
2023-02-06T04:34:45.042Z,3.69
2023-02-06T04:37:14.615Z,3.83
2023-02-06T04:39:41.120Z,3.92
2023-02-06T04:42:07.823Z,4.01
2023-02-06T04:44:34.961Z,4.08
2023-02-06T04:47:01.771Z,4.10
2023-02-06T04:49:28.272Z,4.19
2023-02-06T04:51:54.700Z,4.28
2023-02-06T04:54:21.160Z,4.26
2023-02-06T04:56:47.828Z,4.22
2023-02-06T04:59:14.237Z,4.35
2023-02-06T05:01:40.911Z,4.38
2023-02-06T05:04:07.534Z,4.30
2023-02-06T05:06:34.388Z,4.28
2023-02-06T05:09:01.013Z,4.39
2023-02-06T05:11:27.420Z,4.39
2023-02-06T05:13:53.847Z,4.31
2023-02-06T05:16:20.420Z,4.37
2023-02-06T05:18:47.285Z,4.37
2023-02-06T05:21:14.342Z,4.38
2023-02-06T05:23:40.737Z,4.28
2023-02-06T05:26:07.232Z,4.33
2023-02-06T05:28:33.902Z,4.41
2023-02-06T05:31:01.354Z,4.47
2023-02-06T05:33:29.168Z,4.50
2023-02-06T05:36:01.997Z,4.43
2023-02-06T05:38:28.481Z,4.49
2023-02-06T05:40:55.040Z,4.50
2023-02-06T05:43:21.477Z,4.47
2023-02-06T05:45:47.920Z,4.42
2023-02-06T05:48:14.352Z,4.46
2023-02-06T05:50:43.300Z,4.55
2023-02-06T05:53:10.071Z,4.53
2023-02-06T05:55:36.820Z,4.49
2023-02-06T05:58:06.110Z,4.59
2023-02-06T06:00:32.767Z,4.58
2023-02-06T06:02:59.406Z,4.59
2023-02-06T06:05:25.904Z,4.57
2023-02-06T06:07:52.325Z,5.18
2023-02-06T06:10:18.854Z,4.63
2023-02-06T06:12:45.286Z,4.65
2023-02-06T06:15:11.813Z,4.66
2023-02-06T06:17:38.437Z,4.76
2023-02-06T06:20:05.153Z,4.69
2023-02-06T06:22:31.557Z,4.76
2023-02-06T06:24:58.476Z,4.71
2023-02-06T06:27:24.887Z,4.68
2023-02-06T06:29:51.332Z,4.67
2023-02-06T06:32:18.226Z,4.74
2023-02-06T06:34:44.604Z,4.54
2023-02-06T06:37:11.240Z,4.64
2023-02-06T06:39:37.631Z,4.60
2023-02-06T06:42:04.468Z,4.65
2023-02-06T06:44:31.574Z,4.56
2023-02-06T06:46:58.174Z,4.57
2023-02-06T06:49:24.603Z,4.63
2023-02-06T06:51:51.026Z,4.59
2023-02-06T06:54:19.518Z,4.68
2023-02-06T06:56:46.207Z,4.75
2023-02-06T06:59:15.514Z,4.79
2023-02-06T07:01:42.002Z,4.89
2023-02-06T07:04:08.561Z,4.79
2023-02-06T07:06:35.068Z,4.87
2023-02-06T07:09:02.131Z,4.92
2023-02-06T07:11:28.664Z,4.91
2023-02-06T07:13:55.074Z,4.95
2023-02-06T07:16:21.686Z,5.08
2023-02-06T07:18:48.662Z,5.09
2023-02-06T07:21:15.954Z,5.01
2023-02-06T07:23:42.434Z,5.07
2023-02-06T07:26:08.866Z,5.12
2023-02-06T07:28:35.336Z,5.12
2023-02-06T07:31:03.221Z,5.24
2023-02-06T07:33:29.931Z,5.18
2023-02-06T07:35:56.648Z,5.26
2023-02-06T07:38:23.399Z,5.25
2023-02-06T07:40:49.875Z,5.33
2023-02-06T07:43:16.587Z,5.42
2023-02-06T07:45:43.188Z,5.44
2023-02-06T07:48:09.874Z,5.38
2023-02-06T07:50:36.357Z,5.41
2023-02-06T07:53:02.827Z,5.45
2023-02-06T07:55:29.808Z,5.47
2023-02-06T07:57:56.339Z,5.47
2023-02-06T08:00:22.942Z,5.64
2023-02-06T08:02:49.373Z,5.64
2023-02-06T08:05:15.890Z,5.71
2023-02-06T08:07:42.328Z,5.84
2023-02-06T08:10:08.877Z,5.90
2023-02-06T08:12:35.316Z,5.97
2023-02-06T08:15:02.249Z,5.98
2023-02-06T08:17:28.680Z,5.93
2023-02-06T08:19:55.174Z,5.90
2023-02-06T08:22:21.564Z,6.07
2023-02-06T08:24:48.101Z,6.08
2023-02-06T08:27:14.528Z,6.17
2023-02-06T08:29:42.749Z,6.14
2023-02-06T08:32:10.706Z,6.19
2023-02-06T08:34:40.531Z,6.17
2023-02-06T08:37:07.230Z,6.21
2023-02-06T08:39:33.762Z,6.18
2023-02-06T08:42:00.530Z,6.30
2023-02-06T08:44:26.946Z,6.37
2023-02-06T08:47:04.672Z,6.39
2023-02-06T08:49:36.162Z,6.55
2023-02-06T08:52:02.842Z,6.62
2023-02-06T08:54:29.285Z,6.49
2023-02-06T08:57:00.981Z,6.70
2023-02-06T08:59:29.399Z,6.83
2023-02-06T09:01:55.881Z,6.75
2023-02-06T09:04:22.381Z,7.09
2023-02-06T09:06:49.342Z,6.90
2023-02-06T09:09:16.270Z,7.12
2023-02-06T09:11:43.000Z,7.27
2023-02-06T09:14:14.046Z,7.35
2023-02-06T09:16:40.588Z,8.02
2023-02-06T09:19:07.329Z,7.38
2023-02-06T09:21:35.228Z,7.36
2023-02-06T09:24:06.890Z,7.43
2023-02-06T09:26:53.529Z,7.57
2023-02-06T09:29:23.775Z,7.80
2023-02-06T09:31:50.706Z,7.85
2023-02-06T09:34:17.154Z,7.81
2023-02-06T09:36:43.668Z,7.90
2023-02-06T09:39:10.305Z,7.65
2023-02-06T09:41:40.347Z,7.66
2023-02-06T09:44:30.081Z,7.63
2023-02-06T09:47:28.381Z,7.51
2023-02-06T09:50:02.973Z,7.31
2023-02-06T09:52:52.157Z,7.29
2023-02-06T09:55:29.376Z,7.45
2023-02-06T09:58:01.981Z,7.47
2023-02-06T10:00:35.128Z,7.51
2023-02-06T10:03:13.864Z,7.51
2023-02-06T10:05:50.084Z,7.33
2023-02-06T10:08:26.144Z,7.06
2023-02-06T10:10:59.076Z,7.00
2023-02-06T10:13:49.921Z,6.93
2023-02-06T10:16:29.669Z,7.05
2023-02-06T10:19:00.846Z,6.95
2023-02-06T10:21:32.093Z,7.18
2023-02-06T10:24:10.767Z,7.22
2023-02-06T10:26:39.358Z,7.39
2023-02-06T10:29:10.116Z,7.48
2023-02-06T10:31:50.700Z,7.62
2023-02-06T10:34:24.244Z,7.60
2023-02-06T10:37:10.738Z,7.72
2023-02-06T10:39:58.053Z,7.57
2023-02-06T10:42:43.217Z,7.90
2023-02-06T10:45:28.287Z,7.39
2023-02-06T10:47:58.206Z,7.62
2023-02-06T10:50:32.752Z,7.65
2023-02-06T10:53:06.456Z,7.64
2023-02-06T10:55:45.237Z,7.71
2023-02-06T10:58:29.234Z,7.94
2023-02-06T11:00:56.471Z,7.98
2023-02-06T11:03:27.056Z,8.00
2023-02-06T11:05:55.771Z,7.97
2023-02-06T11:08:44.082Z,7.54
2023-02-06T11:11:20.985Z,7.51
2023-02-06T11:13:51.703Z,7.88
2023-02-06T11:16:23.533Z,8.15
2023-02-06T11:18:50.357Z,8.18
2023-02-06T11:21:46.413Z,8.24
2023-02-06T11:24:15.585Z,9.17
2023-02-06T11:26:44.047Z,8.45
2023-02-06T11:29:19.429Z,8.49
2023-02-06T11:31:50.464Z,8.54
2023-02-06T11:34:33.293Z,8.59
2023-02-06T11:37:06.137Z,8.57
2023-02-06T11:39:38.830Z,8.39
2023-02-06T11:42:28.486Z,8.47
2023-02-06T11:44:54.934Z,8.59
2023-02-06T11:47:37.196Z,8.65
2023-02-06T11:50:13.400Z,8.78
2023-02-06T11:52:46.923Z,8.91
2023-02-06T11:55:42.653Z,8.87
2023-02-06T11:58:12.022Z,8.73
2023-02-06T12:00:56.862Z,8.75
2023-02-06T12:03:36.901Z,8.75
2023-02-06T12:06:26.338Z,8.80
2023-02-06T12:08:55.108Z,8.69
2023-02-06T12:11:50.702Z,8.85
2023-02-06T12:14:25.951Z,8.86
2023-02-06T12:16:52.820Z,8.71
2023-02-06T12:19:24.374Z,8.99
2023-02-06T12:21:55.080Z,8.53
2023-02-06T12:24:35.075Z,8.37
2023-02-06T12:27:06.413Z,8.21
2023-02-06T12:29:36.906Z,8.90
2023-02-06T12:32:29.942Z,8.54
2023-02-06T12:35:16.289Z,8.38
2023-02-06T12:37:48.339Z,8.47
2023-02-06T12:40:38.220Z,8.50
2023-02-06T12:43:16.022Z,8.50
2023-02-06T12:45:54.256Z,8.84
2023-02-06T12:48:59.543Z,8.21
2023-02-06T12:51:41.135Z,8.32
2023-02-06T12:54:43.207Z,8.34
2023-02-06T12:57:16.446Z,8.49
2023-02-06T12:59:58.734Z,8.66
2023-02-06T13:02:48.511Z,8.42
2023-02-06T13:05:26.286Z,8.34
2023-02-06T13:07:55.072Z,8.61
2023-02-06T13:10:25.476Z,8.55
2023-02-06T13:12:57.062Z,8.55
2023-02-06T13:15:25.714Z,8.88
2023-02-06T13:17:52.664Z,9.01
2023-02-06T13:20:21.068Z,9.04
2023-02-06T13:22:50.135Z,9.17
2023-02-06T13:25:25.574Z,9.27
2023-02-06T13:27:52.819Z,9.17
2023-02-06T13:30:31.688Z,8.69
2023-02-06T13:33:22.619Z,8.42
2023-02-06T13:36:05.463Z,8.50
2023-02-06T13:38:34.989Z,8.23
2023-02-06T13:41:16.659Z,8.51
2023-02-06T13:43:54.171Z,8.75
2023-02-06T13:46:24.250Z,8.70
2023-02-06T13:49:29.613Z,8.55
2023-02-06T13:52:20.061Z,8.07
2023-02-06T13:55:02.601Z,8.08
2023-02-06T13:57:38.122Z,8.19
2023-02-06T14:00:30.164Z,8.40
2023-02-06T14:03:14.046Z,8.81
2023-02-06T14:05:47.916Z,8.15
2023-02-06T14:08:24.497Z,8.09
2023-02-06T14:10:56.868Z,7.86
2023-02-06T14:13:29.488Z,8.15
2023-02-06T14:16:10.243Z,8.17
2023-02-06T14:18:39.781Z,8.18
2023-02-06T14:21:16.020Z,8.37
2023-02-06T14:23:59.259Z,8.08
2023-02-06T14:26:54.275Z,7.99
2023-02-06T14:29:36.211Z,8.35
2023-02-06T14:32:27.080Z,8.23
2023-02-06T14:35:16.829Z,8.42
2023-02-06T14:37:54.106Z,8.51
2023-02-06T14:40:23.366Z,8.57
2023-02-06T14:42:50.792Z,8.37
2023-02-06T14:45:46.171Z,8.28
2023-02-06T14:48:22.053Z,8.21
2023-02-06T14:50:51.873Z,8.29
2023-02-06T14:53:30.889Z,8.49
2023-02-06T14:56:14.848Z,8.59
2023-02-06T14:58:46.018Z,8.53
2023-02-06T15:01:18.425Z,8.09
2023-02-06T15:03:46.461Z,8.18
2023-02-06T15:06:16.594Z,8.10
2023-02-06T15:08:50.352Z,8.10
2023-02-06T15:11:24.863Z,8.21
2023-02-06T15:13:54.636Z,8.22
2023-02-06T15:16:21.237Z,8.27
2023-02-06T15:18:48.553Z,8.25
2023-02-06T15:21:16.647Z,8.04
2023-02-06T15:23:54.646Z,7.92
2023-02-06T15:26:40.467Z,8.05
2023-02-06T15:29:17.758Z,7.94
2023-02-06T15:31:52.163Z,7.78
2023-02-06T15:34:19.966Z,7.68
2023-02-06T15:36:46.417Z,7.99
2023-02-06T15:39:14.248Z,7.80
2023-02-06T15:41:42.084Z,8.21
2023-02-06T15:44:34.140Z,8.83
2023-02-06T15:47:03.561Z,9.10
2023-02-06T15:49:42.377Z,7.75
2023-02-06T15:52:10.697Z,7.68
2023-02-06T15:54:40.244Z,7.38
2023-02-06T15:57:33.078Z,7.43
2023-02-06T16:00:00.139Z,7.40
2023-02-06T16:02:46.137Z,7.36
2023-02-06T16:05:40.708Z,7.56
2023-02-06T16:08:34.213Z,7.46
2023-02-06T16:11:34.946Z,7.49
2023-02-06T16:14:10.036Z,7.44
2023-02-06T16:16:38.207Z,7.44
2023-02-06T16:19:47.664Z,7.36
2023-02-06T16:22:22.190Z,7.15
2023-02-06T16:24:49.709Z,7.37
2023-02-06T16:27:19.163Z,7.30
2023-02-06T16:29:48.812Z,7.21
2023-02-06T16:32:19.130Z,7.07
2023-02-06T16:34:46.303Z,6.96
2023-02-06T16:37:22.161Z,6.88
2023-02-06T16:39:48.992Z,7.04
2023-02-06T16:42:41.451Z,6.87
2023-02-06T16:45:23.250Z,7.21
2023-02-06T16:47:50.262Z,6.74
2023-02-06T16:50:17.152Z,6.79
2023-02-06T16:52:49.560Z,6.68
2023-02-06T16:55:21.482Z,6.37
2023-02-06T16:57:50.245Z,6.24
2023-02-06T17:00:25.439Z,6.28
2023-02-06T17:02:52.594Z,6.45
2023-02-06T17:05:24.196Z,6.46
2023-02-06T17:07:51.073Z,6.36
2023-02-06T17:10:21.827Z,6.25
2023-02-06T17:12:48.460Z,6.14
2023-02-06T17:15:16.674Z,6.15
2023-02-06T17:17:43.489Z,5.98
2023-02-06T17:20:32.051Z,5.84
2023-02-06T17:22:58.871Z,6.14
2023-02-06T17:25:25.311Z,5.96
2023-02-06T17:27:52.392Z,6.08
2023-02-06T17:30:21.365Z,5.84
2023-02-06T17:32:48.544Z,5.71
2023-02-06T17:35:15.575Z,5.55
2023-02-06T17:37:41.979Z,5.36
2023-02-06T17:40:11.807Z,5.39
2023-02-06T17:42:38.256Z,5.36
2023-02-06T17:45:04.891Z,5.07
2023-02-06T17:47:31.335Z,5.02
2023-02-06T17:49:57.852Z,4.76
2023-02-06T17:52:24.391Z,4.88
2023-02-06T17:54:51.117Z,4.63
2023-02-06T17:57:17.681Z,4.56
2023-02-06T17:59:44.189Z,4.57
2023-02-06T18:02:13.597Z,4.48
2023-02-06T18:04:40.195Z,4.44
2023-02-06T18:07:07.351Z,4.39
2023-02-06T18:09:33.767Z,4.17
2023-02-06T18:12:00.193Z,4.40
2023-02-06T18:14:26.599Z,4.45
2023-02-06T18:16:53.030Z,4.33
2023-02-06T18:19:23.948Z,4.02
2023-02-06T18:21:50.417Z,4.09
2023-02-06T18:24:16.939Z,3.86
2023-02-06T18:26:43.376Z,3.99
2023-02-06T18:29:09.791Z,4.18
2023-02-06T18:31:36.532Z,4.27
2023-02-06T18:34:07.861Z,4.06
2023-02-06T18:36:36.293Z,3.90
2023-02-06T18:39:04.601Z,3.85
2023-02-06T18:41:49.573Z,3.56
2023-02-06T18:44:16.154Z,3.39
2023-02-06T18:46:42.624Z,3.37
2023-02-06T18:49:09.182Z,3.57
2023-02-06T18:51:35.700Z,3.70
2023-02-06T18:54:02.280Z,3.68
2023-02-06T18:56:28.791Z,3.75
2023-02-06T18:58:55.223Z,3.78
2023-02-06T19:01:23.875Z,4.21
2023-02-06T19:03:51.429Z,4.71
2023-02-06T19:06:22.636Z,4.59
2023-02-06T19:08:49.196Z,4.37
2023-02-06T19:11:15.977Z,4.49
2023-02-06T19:13:42.782Z,4.51
2023-02-06T19:16:12.502Z,4.17
2023-02-06T19:18:42.090Z,4.16
2023-02-06T19:21:13.201Z,3.96
2023-02-06T19:23:39.814Z,3.86
2023-02-06T19:26:10.878Z,3.69
2023-02-06T19:28:38.241Z,3.46
2023-02-06T19:31:06.014Z,3.30
2023-02-06T19:33:34.243Z,3.21
2023-02-06T19:36:09.322Z,3.06
2023-02-06T19:38:36.088Z,2.96
2023-02-06T19:41:19.026Z,2.89
2023-02-06T19:43:45.453Z,2.90
2023-02-06T19:46:14.324Z,2.85
2023-02-06T19:48:45.537Z,2.83
2023-02-06T19:51:14.480Z,2.77
2023-02-06T19:53:46.902Z,2.73
2023-02-06T19:56:25.526Z,2.86
2023-02-06T19:58:56.033Z,2.86
2023-02-06T20:01:22.549Z,2.89
2023-02-06T20:03:49.304Z,2.92
2023-02-06T20:06:15.893Z,3.09
2023-02-06T20:08:43.858Z,2.85
2023-02-06T20:11:12.997Z,2.88
2023-02-06T20:13:40.322Z,2.85
2023-02-06T20:16:14.577Z,2.81
2023-02-06T20:18:41.190Z,2.81
2023-02-06T20:21:29.361Z,2.80
2023-02-06T20:23:58.113Z,2.68
2023-02-06T20:26:26.638Z,2.55
2023-02-06T20:28:53.615Z,2.51
2023-02-06T20:31:20.849Z,2.54
2023-02-06T20:33:47.643Z,2.54
2023-02-06T20:36:17.192Z,2.50
2023-02-06T20:38:54.824Z,2.51
2023-02-06T20:41:25.118Z,2.52
2023-02-06T20:43:51.794Z,2.46
2023-02-06T20:46:18.377Z,2.45
2023-02-06T20:48:45.880Z,2.49
2023-02-06T20:51:13.513Z,2.41
2023-02-06T20:53:40.574Z,2.42
2023-02-06T20:56:11.980Z,2.39
2023-02-06T20:58:39.172Z,2.53
2023-02-06T21:01:17.489Z,2.47
2023-02-06T21:03:46.180Z,2.61
2023-02-06T21:06:14.016Z,2.71
2023-02-06T21:08:46.005Z,2.80
2023-02-06T21:11:12.582Z,2.58
2023-02-06T21:13:42.359Z,2.53
2023-02-06T21:16:11.937Z,2.51
2023-02-06T21:18:42.440Z,2.37
2023-02-06T21:21:11.047Z,2.34
2023-02-06T21:23:38.936Z,2.30
2023-02-06T21:26:06.995Z,2.23
2023-02-06T21:28:34.833Z,2.25
2023-02-06T21:31:13.122Z,2.15
2023-02-06T21:33:39.811Z,2.03
2023-02-06T21:36:07.632Z,2.01
2023-02-06T21:38:38.032Z,1.95
2023-02-06T21:41:13.855Z,1.91
2023-02-06T21:43:40.613Z,1.93
2023-02-06T21:46:07.283Z,1.98
2023-02-06T21:48:34.857Z,1.98
2023-02-06T21:51:12.660Z,2.01
2023-02-06T21:53:39.106Z,1.92
2023-02-06T21:56:10.732Z,2.02
2023-02-06T21:58:37.954Z,2.01
2023-02-06T22:01:08.837Z,1.96
2023-02-06T22:03:35.499Z,2.01
2023-02-06T22:06:08.597Z,2.04
2023-02-06T22:08:36.339Z,2.01
2023-02-06T22:11:10.759Z,2.01
2023-02-06T22:13:37.198Z,1.75
2023-02-06T22:16:03.793Z,1.67
2023-02-06T22:18:30.176Z,1.67
2023-02-06T22:21:07.845Z,1.60
2023-02-06T22:23:35.234Z,1.60
2023-02-06T22:26:02.037Z,1.55
2023-02-06T22:28:28.476Z,1.51
2023-02-06T22:30:55.043Z,1.42
2023-02-06T22:33:21.722Z,1.43
2023-02-06T22:35:48.205Z,1.41
2023-02-06T22:38:14.590Z,1.40
2023-02-06T22:40:41.135Z,1.48
2023-02-06T22:43:08.462Z,1.38
2023-02-06T22:45:35.631Z,1.30
2023-02-06T22:48:02.285Z,1.50
2023-02-06T22:50:29.432Z,1.41
2023-02-06T22:53:15.601Z,1.52
2023-02-06T22:56:01.356Z,1.47
2023-02-06T22:58:28.035Z,1.47
2023-02-06T23:01:02.270Z,1.50
2023-02-06T23:03:28.820Z,1.43
2023-02-06T23:05:55.563Z,1.32
2023-02-06T23:08:21.974Z,1.44
2023-02-06T23:10:48.594Z,1.47
2023-02-06T23:13:15.014Z,1.29
2023-02-06T23:15:42.446Z,1.26
2023-02-06T23:18:09.148Z,1.29
2023-02-06T23:20:36.824Z,1.14
2023-02-06T23:23:03.310Z,1.10
2023-02-06T23:25:29.859Z,1.20
2023-02-06T23:27:56.786Z,1.14
2023-02-06T23:30:23.452Z,1.10
2023-02-06T23:32:50.532Z,1.09
2023-02-06T23:35:17.720Z,1.13
2023-02-06T23:37:44.296Z,1.08
2023-02-06T23:40:11.356Z,1.09
2023-02-06T23:42:37.856Z,1.16
2023-02-06T23:45:04.456Z,1.22
2023-02-06T23:47:30.901Z,1.19
2023-02-06T23:49:57.301Z,1.02
2023-02-06T23:52:23.792Z,0.83
2023-02-06T23:54:50.993Z,0.78
2023-02-06T23:57:17.429Z,0.66
2023-02-06T23:59:43.910Z,0.81
